»·PEaware :: N5388K KTOA-KVNY

N5388K :: KTOA-KVNY

FLIGHT INFORMATION

Flight Status: Arrived
Operator: Privately registered:
United States
More flights under this callsign
Pilot: Peter K. (32806)
Aircraft: CESSNA 172 SKYHAWK
(C172)
More flights by this aircraft type
Origin: KTOA Zamperini
United States
Destination: KVNY Van Nuys
United States
More flights between these airports :: More routes between these airports
Route: LAX170 LIMBO V64 SMO125 SMO SMO317 CANOG
File this flight plan on PilotEdge
Remarks: TEC route SCTP2, SKY HIGH SCENARIO #1
Altitude:
(Current/Filed)
4,000ft
Speed:
(Current/Filed)
115kts
Departed: 03-Feb-21 12:12 PM
Arrived: 03-Feb-21 01:33 PM
Distance/Time
Traveled:
25nm/1:21
Distance/Time
To Go:
Arrived

Flight Plot

Page will automatically refresh every two minutes.

Flight plan parsing failed; only flown route is shown


Map Options




Map Legend


Flown Route
Filed Route
Departure Airport
Arrival Airport
Navaid (VOR, NDB)
Fix

Horizontal Profiles

Position Reports

Time Latitude Longitude Heading Altitude Ground
Speed
03-Feb-21 11:43 33.801601 -118.341420 218 102ft 0kts
03-Feb-21 11:44 33.801601 -118.341420 218 102ft 0kts
03-Feb-21 11:45 33.801601 -118.341420 218 102ft 0kts
03-Feb-21 11:46 33.801601 -118.341420 218 102ft 0kts
03-Feb-21 11:47 33.801601 -118.341420 218 102ft 0kts
03-Feb-21 11:48 33.801601 -118.341420 218 102ft 0kts
03-Feb-21 11:49 33.801601 -118.341420 218 102ft 0kts
03-Feb-21 11:50 33.801601 -118.341420 218 102ft 0kts
03-Feb-21 11:51 33.801601 -118.341420 218 102ft 0kts
03-Feb-21 11:52 33.801601 -118.341420 218 102ft 0kts
03-Feb-21 11:53 33.801601 -118.341420 218 102ft 0kts
03-Feb-21 11:54 33.801601 -118.341420 218 102ft 0kts
03-Feb-21 11:55 33.801601 -118.341420 218 102ft 0kts
03-Feb-21 11:56 33.801601 -118.341420 218 102ft 0kts
03-Feb-21 11:57 33.801601 -118.341420 218 102ft 0kts
03-Feb-21 11:58 33.801601 -118.341420 218 102ft 0kts
03-Feb-21 11:59 33.801601 -118.341420 218 102ft 0kts
03-Feb-21 12:00 33.801601 -118.341420 218 102ft 0kts
03-Feb-21 12:01 33.801601 -118.341420 218 102ft 0kts
03-Feb-21 12:02 33.801601 -118.341420 218 102ft 0kts
03-Feb-21 12:03 33.801601 -118.341420 218 102ft 0kts
03-Feb-21 12:04 33.801601 -118.341420 218 102ft 0kts
03-Feb-21 12:05 33.801601 -118.341420 218 102ft 0kts
03-Feb-21 12:06 33.801601 -118.341420 218 102ft 0kts
03-Feb-21 12:07 33.800908 -118.340621 129 104ft 8kts
03-Feb-21 12:08 33.799157 -118.337446 129 106ft 14kts
03-Feb-21 12:09 33.798410 -118.333930 37 104ft 12kts
03-Feb-21 12:10 33.799072 -118.333312 37 101ft 0kts
03-Feb-21 12:11 33.803831 -118.339254 308 154ft 78kts
03-Feb-21 12:12 33.816161 -118.360543 303 927ft 79kts
03-Feb-21 12:13 33.828281 -118.382367 306 1675ft 77kts
03-Feb-21 12:14 33.840731 -118.403564 306 2385ft 76kts
03-Feb-21 12:15 33.853920 -118.425820 302 3101ft 74kts
03-Feb-21 12:16 33.837533 -118.439935 195 3714ft 89kts
03-Feb-21 12:17 33.810407 -118.444087 189 4001ft 116kts
03-Feb-21 12:18 33.777045 -118.447337 188 3997ft 120kts
03-Feb-21 12:19 33.757789 -118.425930 74 3999ft 114kts
03-Feb-21 12:20 33.763416 -118.388079 75 3998ft 115kts
03-Feb-21 12:21 33.766764 -118.349360 82 3998ft 116kts
03-Feb-21 12:22 33.768813 -118.310219 81 3998ft 117kts
03-Feb-21 12:23 33.771038 -118.270802 82 3997ft 118kts
03-Feb-21 12:24 33.778024 -118.232011 24 3994ft 110kts
03-Feb-21 12:25 33.801463 -118.247125 318 3996ft 101kts
03-Feb-21 12:26 33.822920 -118.269287 320 4005ft 101kts
03-Feb-21 12:27 33.844580 -118.291226 321 4007ft 102kts
03-Feb-21 12:28 33.866364 -118.313070 321 4007ft 102kts
03-Feb-21 12:29 33.888382 -118.335041 320 4007ft 102kts
03-Feb-21 12:30 33.910285 -118.356850 320 4006ft 102kts
03-Feb-21 12:31 33.932113 -118.378580 318 4004ft 101kts
03-Feb-21 12:32 33.954126 -118.400290 317 4001ft 102kts
03-Feb-21 12:33 33.976239 -118.422396 315 4000ft 104kts
03-Feb-21 12:34 33.998606 -118.444963 314 3999ft 106kts
03-Feb-21 12:36 34.023680 -118.465241 324 3999ft 111kts
03-Feb-21 12:37 34.051425 -118.483197 325 4001ft 114kts
03-Feb-21 12:38 34.074375 -118.497996 321 4729ft 89kts
03-Feb-21 12:39 34.098227 -118.513534 324 5008ft 116kts
03-Feb-21 12:40 34.126569 -118.531592 325 5033ft 111kts
03-Feb-21 12:41 34.152880 -118.548555 326 5030ft 104kts
03-Feb-21 12:42 34.178116 -118.564853 327 5028ft 101kts
03-Feb-21 12:43 34.202778 -118.580867 327 5025ft 100kts
03-Feb-21 12:44 34.227661 -118.595215 353 5022ft 103kts
03-Feb-21 12:45 34.256274 -118.594277 357 5065ft 98kts
03-Feb-21 12:46 34.284872 -118.593188 357 5020ft 103kts
03-Feb-21 12:47 34.313527 -118.592123 357 5020ft 102kts
03-Feb-21 12:48 34.342278 -118.591073 357 5019ft 103kts
03-Feb-21 12:49 34.371123 -118.590039 357 5019ft 102kts
03-Feb-21 12:50 34.399904 -118.589037 357 5019ft 104kts
03-Feb-21 12:51 34.429048 -118.587837 357 5025ft 105kts
03-Feb-21 12:51 34.453498 -118.586416 357 5031ft 106kts
03-Feb-21 12:53 34.486119 -118.576859 61 5037ft 121kts
03-Feb-21 12:53 34.485610 -118.541766 92 5041ft 125kts
03-Feb-21 12:54 34.463103 -118.512948 174 5037ft 120kts
03-Feb-21 12:56 34.424514 -118.510786 181 5032ft 120kts
03-Feb-21 12:56 34.396478 -118.508094 179 4915ft 125kts
03-Feb-21 12:57 34.362795 -118.504904 178 4205ft 116kts
03-Feb-21 12:58 34.332379 -118.502012 177 3524ft 105kts
03-Feb-21 12:59 34.303556 -118.499274 176 2870ft 102kts
03-Feb-21 13:00 34.275257 -118.496587 175 2223ft 101kts
03-Feb-21 13:01 34.247504 -118.493940 178 1593ft 97kts
03-Feb-21 13:02 34.221326 -118.491402 176 1170ft 99kts
03-Feb-21 13:03 34.195023 -118.487240 171 1716ft 109kts
03-Feb-21 13:04 34.170186 -118.475593 172 2531ft 85kts
03-Feb-21 13:05 34.147826 -118.470112 175 3219ft 79kts
03-Feb-21 13:06 34.127214 -118.464810 175 3856ft 75kts
03-Feb-21 13:07 34.106855 -118.459207 175 4423ft 75kts
03-Feb-21 13:08 34.083223 -118.455545 185 4614ft 99kts
03-Feb-21 13:09 34.055573 -118.455815 186 4614ft 99kts
03-Feb-21 13:10 34.027660 -118.456361 187 4616ft 100kts
03-Feb-21 13:11 34.014571 -118.478861 266 4619ft 99kts
03-Feb-21 13:12 34.017960 -118.512062 284 4620ft 102kts
03-Feb-21 13:13 34.025817 -118.544549 278 4623ft 100kts
03-Feb-21 13:14 34.031796 -118.577329 277 4624ft 99kts
03-Feb-21 13:15 34.037589 -118.610048 277 4623ft 99kts
03-Feb-21 13:16 34.043326 -118.642542 277 4622ft 99kts
03-Feb-21 13:17 34.048388 -118.671348 276 5029ft 97kts
03-Feb-21 13:18 34.053709 -118.703461 276 5023ft 96kts
03-Feb-21 13:19 34.077926 -118.715713 352 5022ft 115kts
03-Feb-21 13:20 34.108885 -118.718802 342 4606ft 111kts
03-Feb-21 13:21 34.139249 -118.724699 342 4031ft 110kts
03-Feb-21 13:22 34.170404 -118.731160 342 4017ft 114kts
03-Feb-21 13:23 34.199315 -118.722569 60 4016ft 129kts
03-Feb-21 13:24 34.202082 -118.680599 97 3809ft 127kts
03-Feb-21 13:25 34.200857 -118.638215 91 3407ft 119kts
03-Feb-21 13:26 34.200616 -118.602081 93 3401ft 93kts
03-Feb-21 13:27 34.200156 -118.569334 92 2452ft 115kts
03-Feb-21 13:28 34.199470 -118.531526 93 1600ft 98kts
03-Feb-21 13:29 34.210968 -118.510485 355 1605ft 92kts
03-Feb-21 13:30 34.232991 -118.506549 66 1371ft 89kts
03-Feb-21 13:31 34.225648 -118.490666 177 996ft 65kts
03-Feb-21 13:32 34.210883 -118.489235 171 805ft 15kts
03-Feb-21 13:33 34.210294 -118.488656 89 805ft 0kts
03-Feb-21 13:34 34.210294 -118.488656 89 805ft 0kts
03-Feb-21 13:35 34.208583 -118.488217 175 805ft 14kts
03-Feb-21 13:36 34.205646 -118.487513 89 805ft 0kts
03-Feb-21 13:37 34.205646 -118.487513 89 805ft 0kts

Navigation Log

Ident Type
Flight plan parsing failed, navigation log unavailable